createdAt,value
2022-09-17T00:00:44.332Z,0
2022-09-17T00:01:47.288Z,0
2022-09-17T00:02:50.755Z,0
2022-09-17T00:03:54.910Z,0
2022-09-17T00:04:57.522Z,0
2022-09-17T00:06:00.860Z,0
2022-09-17T00:07:05.637Z,0
2022-09-17T00:08:08.618Z,0
2022-09-17T00:09:11.256Z,0
2022-09-17T00:10:14.339Z,0
2022-09-17T00:11:17.778Z,0
2022-09-17T00:12:20.099Z,0
2022-09-17T00:13:22.892Z,0
2022-09-17T00:14:25.483Z,0
2022-09-17T00:15:29.029Z,0
2022-09-17T00:16:31.874Z,0
2022-09-17T00:17:35.455Z,0
2022-09-17T00:18:38.621Z,0
2022-09-17T00:19:41.340Z,0
2022-09-17T00:20:44.250Z,0
2022-09-17T00:21:47.119Z,0
2022-09-17T00:22:51.591Z,0
2022-09-17T00:23:54.694Z,0
2022-09-17T00:24:57.345Z,0
2022-09-17T00:26:00.502Z,0
2022-09-17T00:27:03.571Z,0
2022-09-17T00:28:07.127Z,0
2022-09-17T00:29:09.625Z,0
2022-09-17T00:30:12.416Z,0
2022-09-17T00:31:16.223Z,0
2022-09-17T00:32:19.628Z,0
2022-09-17T00:33:23.145Z,0
2022-09-17T00:34:26.292Z,0
2022-09-17T00:35:29.289Z,0
2022-09-17T00:36:32.765Z,0
2022-09-17T00:37:35.929Z,0
2022-09-17T00:38:40.613Z,0
2022-09-17T00:39:43.533Z,0
2022-09-17T00:40:46.830Z,0
2022-09-17T00:41:50.006Z,0
2022-09-17T00:42:52.814Z,0
2022-09-17T00:43:55.538Z,0
2022-09-17T00:44:59.103Z,0
2022-09-17T00:46:02.143Z,0
2022-09-17T00:47:05.478Z,0
2022-09-17T00:48:08.589Z,0
2022-09-17T00:49:12.323Z,0
2022-09-17T00:50:15.474Z,0
2022-09-17T00:51:18.531Z,0
2022-09-17T00:52:21.831Z,0
2022-09-17T00:53:24.360Z,0
2022-09-17T00:54:29.107Z,0
2022-09-17T00:55:31.752Z,0
2022-09-17T00:56:33.908Z,0
2022-09-17T00:57:36.638Z,0
2022-09-17T00:58:41.215Z,0
2022-09-17T00:59:44.104Z,0
2022-09-17T01:00:47.791Z,0
2022-09-17T01:01:50.821Z,0
2022-09-17T01:02:54.565Z,0
2022-09-17T01:03:57.709Z,0
2022-09-17T01:05:00.646Z,0
2022-09-17T01:06:03.805Z,0
2022-09-17T01:07:06.655Z,0
2022-09-17T01:08:09.635Z,0
2022-09-17T01:09:12.231Z,0
2022-09-17T01:10:16.926Z,0
2022-09-17T01:11:20.108Z,0
2022-09-17T01:12:22.823Z,0
2022-09-17T01:13:26.004Z,0
2022-09-17T01:14:29.265Z,0
2022-09-17T01:15:32.783Z,0
2022-09-17T01:16:35.153Z,0
2022-09-17T01:17:38.613Z,0
2022-09-17T01:18:41.727Z,0
2022-09-17T01:19:44.859Z,0
2022-09-17T01:20:47.813Z,0
2022-09-17T01:21:50.909Z,0
2022-09-17T01:22:53.609Z,0
2022-09-17T01:23:57.448Z,0
2022-09-17T01:24:59.865Z,0
2022-09-17T01:26:04.010Z,0
2022-09-17T01:27:06.913Z,0
2022-09-17T01:28:09.154Z,0
2022-09-17T01:29:12.024Z,0
2022-09-17T01:30:14.533Z,0
2022-09-17T01:31:17.410Z,0
2022-09-17T01:32:20.091Z,0
2022-09-17T01:33:22.956Z,0
2022-09-17T01:34:25.409Z,0
2022-09-17T01:35:28.190Z,0
2022-09-17T01:36:31.189Z,0
2022-09-17T01:37:34.273Z,0
2022-09-17T01:38:37.336Z,0
2022-09-17T01:39:40.612Z,0
2022-09-17T01:40:43.472Z,0
2022-09-17T01:41:48.150Z,0
2022-09-17T01:42:51.876Z,0
2022-09-17T01:43:54.129Z,0
2022-09-17T01:44:57.020Z,0
2022-09-17T01:46:00.016Z,0
2022-09-17T01:47:02.614Z,0
2022-09-17T01:48:05.396Z,0
2022-09-17T01:49:08.009Z,0
2022-09-17T01:50:10.962Z,0
2022-09-17T01:51:14.414Z,0
2022-09-17T01:52:16.949Z,0
2022-09-17T01:53:19.538Z,0
2022-09-17T01:54:21.576Z,0
2022-09-17T01:55:24.225Z,0
2022-09-17T01:56:27.479Z,0
2022-09-17T01:57:32.246Z,0
2022-09-17T01:58:35.153Z,0
2022-09-17T01:59:37.964Z,0
2022-09-17T02:00:40.784Z,0
2022-09-17T02:01:44.489Z,0
2022-09-17T02:02:48.598Z,0
2022-09-17T02:03:52.005Z,0
2022-09-17T02:04:54.520Z,0
2022-09-17T02:05:57.027Z,0
2022-09-17T02:07:00.113Z,0
2022-09-17T02:08:02.546Z,0
2022-09-17T02:09:05.603Z,0
2022-09-17T02:10:08.005Z,0
2022-09-17T02:11:10.959Z,0
2022-09-17T02:12:13.462Z,0
2022-09-17T02:13:18.216Z,0
2022-09-17T02:14:22.043Z,0
2022-09-17T02:15:24.584Z,0
2022-09-17T02:16:27.389Z,0
2022-09-17T02:17:30.560Z,0
2022-09-17T02:18:33.422Z,0
2022-09-17T02:19:37.423Z,0
2022-09-17T02:20:39.732Z,0
2022-09-17T02:21:42.900Z,0
2022-09-17T02:22:46.515Z,0
2022-09-17T02:23:49.969Z,0
2022-09-17T02:24:53.022Z,0
2022-09-17T02:25:55.534Z,0
2022-09-17T02:26:58.166Z,0
2022-09-17T02:28:03.402Z,0
2022-09-17T02:29:08.353Z,0
2022-09-17T02:30:11.634Z,0
2022-09-17T02:31:14.792Z,0
2022-09-17T02:32:17.192Z,0
2022-09-17T02:33:20.277Z,0
2022-09-17T02:34:22.710Z,0
2022-09-17T02:35:25.589Z,0
2022-09-17T02:36:29.319Z,0
2022-09-17T02:37:31.724Z,0
2022-09-17T02:38:34.722Z,0
2022-09-17T02:39:37.435Z,0
2022-09-17T02:40:40.060Z,0
2022-09-17T02:41:42.659Z,0
2022-09-17T02:42:45.281Z,0
2022-09-17T02:43:48.950Z,0
2022-09-17T02:44:53.368Z,0
2022-09-17T02:45:56.478Z,0
2022-09-17T02:46:59.087Z,0
2022-09-17T02:48:01.857Z,0
2022-09-17T02:49:04.379Z,0
2022-09-17T02:50:06.803Z,0
2022-09-17T02:51:09.470Z,0
2022-09-17T02:52:12.532Z,0
2022-09-17T02:53:16.014Z,0
2022-09-17T02:54:19.475Z,0
2022-09-17T02:55:22.191Z,0
2022-09-17T02:56:25.935Z,0
2022-09-17T02:57:28.750Z,0
2022-09-17T02:58:31.478Z,0
2022-09-17T02:59:33.978Z,0
2022-09-17T03:00:38.413Z,0
2022-09-17T03:01:41.520Z,0
2022-09-17T03:02:44.197Z,0
2022-09-17T03:03:46.534Z,0
2022-09-17T03:04:49.673Z,0
2022-09-17T03:05:53.048Z,0
2022-09-17T03:06:55.648Z,0
2022-09-17T03:07:58.807Z,0
2022-09-17T03:09:01.903Z,0
2022-09-17T03:10:05.345Z,0
2022-09-17T03:11:08.438Z,0
2022-09-17T03:12:10.863Z,0
2022-09-17T03:13:13.944Z,0
2022-09-17T03:14:17.301Z,0
2022-09-17T03:15:20.354Z,0
2022-09-17T03:16:24.849Z,0
2022-09-17T03:17:28.482Z,0
2022-09-17T03:18:31.070Z,0
2022-09-17T03:19:33.881Z,0
2022-09-17T03:20:37.242Z,0
2022-09-17T03:21:40.408Z,0
2022-09-17T03:22:43.301Z,0
2022-09-17T03:23:46.068Z,0
2022-09-17T03:24:49.874Z,0
2022-09-17T03:25:52.392Z,0
2022-09-17T03:26:55.776Z,0
2022-09-17T03:27:58.834Z,0
2022-09-17T03:29:01.346Z,0
2022-09-17T03:30:04.261Z,0
2022-09-17T03:31:07.112Z,0
2022-09-17T03:32:12.415Z,0
2022-09-17T03:33:15.684Z,0
2022-09-17T03:34:18.318Z,0
2022-09-17T03:35:21.391Z,0
2022-09-17T03:36:24.382Z,0
2022-09-17T03:37:31.032Z,0
2022-09-17T03:38:35.771Z,0
2022-09-17T03:39:38.656Z,0
2022-09-17T03:40:42.361Z,0
2022-09-17T03:41:45.165Z,0
2022-09-17T03:42:48.234Z,0
2022-09-17T03:43:51.261Z,0
2022-09-17T03:44:53.679Z,0
2022-09-17T03:45:57.492Z,0
2022-09-17T03:47:01.582Z,0
2022-09-17T03:48:06.289Z,0
2022-09-17T03:49:08.972Z,0
2022-09-17T03:50:12.048Z,0
2022-09-17T03:51:15.116Z,0
2022-09-17T03:52:18.535Z,0
2022-09-17T03:53:21.683Z,0
2022-09-17T03:54:24.489Z,0
2022-09-17T03:55:27.674Z,0
2022-09-17T03:56:30.203Z,0
2022-09-17T03:57:33.187Z,0
2022-09-17T03:58:35.980Z,0
2022-09-17T03:59:38.418Z,0
2022-09-17T04:00:41.129Z,0
2022-09-17T04:01:43.927Z,0
2022-09-17T04:02:48.014Z,0
2022-09-17T04:03:53.078Z,0
2022-09-17T04:04:57.808Z,0
2022-09-17T04:06:00.409Z,0
2022-09-17T04:07:03.555Z,0
2022-09-17T04:08:06.014Z,0
2022-09-17T04:09:09.208Z,0
2022-09-17T04:10:12.655Z,0
2022-09-17T04:11:15.257Z,0
2022-09-17T04:12:18.534Z,0
2022-09-17T04:13:21.412Z,0
2022-09-17T04:14:24.855Z,0
2022-09-17T04:15:27.940Z,0
2022-09-17T04:16:31.157Z,0
2022-09-17T04:17:34.649Z,0
2022-09-17T04:18:37.544Z,0
2022-09-17T04:19:42.232Z,0
2022-09-17T04:20:45.782Z,0
2022-09-17T04:21:48.028Z,0
2022-09-17T04:22:51.373Z,4
2022-09-17T04:23:54.795Z,0
2022-09-17T04:24:57.867Z,0
2022-09-17T04:26:00.579Z,4
2022-09-17T04:27:03.993Z,4
2022-09-17T04:28:07.152Z,8
2022-09-17T04:29:10.057Z,8
2022-09-17T04:30:12.921Z,8
2022-09-17T04:31:16.034Z,12
2022-09-17T04:32:20.078Z,16
2022-09-17T04:33:23.575Z,20
2022-09-17T04:34:26.511Z,20
2022-09-17T04:35:30.620Z,20
2022-09-17T04:36:33.339Z,32
2022-09-17T04:37:36.049Z,32
2022-09-17T04:38:38.927Z,40
2022-09-17T04:39:42.463Z,48
2022-09-17T04:40:45.581Z,56
2022-09-17T04:41:48.431Z,60
2022-09-17T04:42:51.230Z,72
2022-09-17T04:43:53.829Z,84
2022-09-17T04:44:56.660Z,92
2022-09-17T04:45:59.726Z,104
2022-09-17T04:47:02.804Z,124
2022-09-17T04:48:05.678Z,136
2022-09-17T04:49:08.048Z,152
2022-09-17T04:50:11.461Z,168
2022-09-17T04:51:15.859Z,188
2022-09-17T04:52:19.782Z,204
2022-09-17T04:53:22.859Z,204
2022-09-17T04:54:26.301Z,232
2022-09-17T04:55:28.908Z,268
2022-09-17T04:56:32.340Z,300
2022-09-17T04:57:34.784Z,332
2022-09-17T04:58:37.903Z,364
2022-09-17T04:59:40.779Z,396
2022-09-17T05:00:43.978Z,436
2022-09-17T05:01:47.850Z,488
2022-09-17T05:02:51.251Z,556
2022-09-17T05:03:54.404Z,612
2022-09-17T05:04:57.990Z,636
2022-09-17T05:06:01.593Z,696
2022-09-17T05:07:06.287Z,756
2022-09-17T05:08:16.125Z,808
2022-09-17T05:09:19.213Z,852
2022-09-17T05:10:22.313Z,876
2022-09-17T05:11:25.099Z,908
2022-09-17T05:12:32.465Z,944
2022-09-17T05:13:37.683Z,1044
2022-09-17T05:14:40.397Z,1088
2022-09-17T05:15:43.614Z,1104
2022-09-17T05:16:47.303Z,1188
2022-09-17T05:17:50.795Z,1284
2022-09-17T05:18:54.256Z,1344
2022-09-17T05:19:56.642Z,1396
2022-09-17T05:20:59.483Z,1444
2022-09-17T05:22:02.648Z,1476
2022-09-17T05:23:07.102Z,1504
2022-09-17T05:24:10.387Z,1540
2022-09-17T05:25:12.990Z,1560
2022-09-17T05:26:16.064Z,1628
2022-09-17T05:27:19.303Z,1768
2022-09-17T05:28:22.407Z,2108
2022-09-17T05:29:25.784Z,2344
2022-09-17T05:30:28.871Z,2384
2022-09-17T05:31:31.770Z,2484
2022-09-17T05:32:34.983Z,2488
2022-09-17T05:33:37.430Z,2400
2022-09-17T05:34:41.133Z,2264
2022-09-17T05:35:44.294Z,2208
2022-09-17T05:36:47.299Z,2296
2022-09-17T05:37:50.709Z,2416
2022-09-17T05:38:55.403Z,2380
2022-09-17T05:39:58.554Z,2368
2022-09-17T05:41:01.479Z,2440
2022-09-17T05:42:05.000Z,2564
2022-09-17T05:43:07.493Z,3168
2022-09-17T05:44:13.804Z,3744
2022-09-17T05:45:20.425Z,4480
2022-09-17T05:46:22.934Z,5592
2022-09-17T05:47:26.630Z,6512
2022-09-17T05:48:29.517Z,6528
2022-09-17T05:49:32.648Z,6132
2022-09-17T05:50:35.724Z,5652
2022-09-17T05:51:37.950Z,5372
2022-09-17T05:52:40.946Z,5204
2022-09-17T05:53:43.933Z,5252
2022-09-17T05:54:48.825Z,5128
2022-09-17T05:55:51.931Z,5008
2022-09-17T05:56:55.277Z,4860
2022-09-17T05:57:57.433Z,4728
2022-09-17T05:59:01.165Z,4696
2022-09-17T06:00:04.180Z,4488
2022-09-17T06:01:07.513Z,4040
2022-09-17T06:02:10.242Z,3656
2022-09-17T06:03:14.122Z,3420
2022-09-17T06:04:18.481Z,3308
2022-09-17T06:05:21.292Z,3332
2022-09-17T06:06:23.622Z,3416
2022-09-17T06:07:26.135Z,3500
2022-09-17T06:08:29.884Z,3552
2022-09-17T06:09:33.358Z,3580
2022-09-17T06:10:37.835Z,3596
2022-09-17T06:11:40.990Z,3668
2022-09-17T06:12:43.617Z,3788
2022-09-17T06:13:46.322Z,3972
2022-09-17T06:14:49.151Z,4152
2022-09-17T06:15:52.079Z,4576
2022-09-17T06:16:55.460Z,4548
2022-09-17T06:17:58.327Z,4596
2022-09-17T06:19:01.658Z,4932
2022-09-17T06:20:05.153Z,5060
2022-09-17T06:21:08.221Z,5084
2022-09-17T06:22:11.664Z,5456
2022-09-17T06:23:16.027Z,5360
2022-09-17T06:24:19.021Z,5612
2022-09-17T06:25:21.801Z,5400
2022-09-17T06:26:26.244Z,5676
2022-09-17T06:27:28.955Z,5860
2022-09-17T06:28:31.668Z,6124
2022-09-17T06:29:43.067Z,6412
2022-09-17T06:30:45.671Z,6284
2022-09-17T06:31:48.925Z,6544
2022-09-17T06:32:52.445Z,6992
2022-09-17T06:33:58.240Z,7744
2022-09-17T06:35:03.031Z,7380
2022-09-17T06:36:08.569Z,8520
2022-09-17T06:37:17.520Z,7180
2022-09-17T06:38:20.124Z,6820
2022-09-17T06:39:23.517Z,7320
2022-09-17T06:40:26.958Z,8820
2022-09-17T06:41:32.110Z,8844
2022-09-17T06:42:35.759Z,10332
2022-09-17T06:43:39.094Z,9228
2022-09-17T06:44:42.269Z,9224
2022-09-17T06:45:45.910Z,9320
2022-09-17T06:46:48.754Z,9100
2022-09-17T06:47:52.595Z,8296
2022-09-17T06:48:55.695Z,7552
2022-09-17T06:49:58.868Z,7512
2022-09-17T06:51:01.463Z,7104
2022-09-17T06:52:04.616Z,8300
2022-09-17T06:53:07.207Z,9064
2022-09-17T06:54:09.714Z,9900
2022-09-17T06:55:12.987Z,9396
2022-09-17T06:56:16.426Z,9488
2022-09-17T06:57:21.166Z,9716
2022-09-17T06:58:24.357Z,10368
2022-09-17T06:59:26.863Z,14512
2022-09-17T07:00:30.016Z,12412
2022-09-17T07:01:32.944Z,10776
2022-09-17T07:02:36.282Z,10140
2022-09-17T07:03:40.003Z,11512
2022-09-17T07:04:43.464Z,12508
2022-09-17T07:05:46.553Z,10048
2022-09-17T07:06:49.627Z,11020
2022-09-17T07:07:52.428Z,12984
2022-09-17T07:08:55.208Z,11572
2022-09-17T07:09:58.093Z,11136
2022-09-17T07:11:01.378Z,12504
2022-09-17T07:12:04.162Z,12776
2022-09-17T07:13:08.566Z,10604
2022-09-17T07:14:12.312Z,10556
2022-09-17T07:15:14.912Z,11224
2022-09-17T07:16:18.028Z,12288
2022-09-17T07:17:21.979Z,12376
2022-09-17T07:18:25.994Z,17164
2022-09-17T07:19:28.782Z,14556
2022-09-17T07:20:31.227Z,13472
2022-09-17T07:21:34.021Z,11412
2022-09-17T07:22:37.243Z,12068
2022-09-17T07:23:40.039Z,12984
2022-09-17T07:24:43.537Z,12536
2022-09-17T07:25:46.059Z,12192
2022-09-17T07:26:49.262Z,13388
2022-09-17T07:27:52.605Z,15252
2022-09-17T07:28:57.288Z,13592
2022-09-17T07:30:00.266Z,12896
2022-09-17T07:31:03.171Z,15896
2022-09-17T07:32:06.079Z,14124
2022-09-17T07:33:09.245Z,12704
2022-09-17T07:34:11.751Z,13716
2022-09-17T07:35:14.632Z,14164
2022-09-17T07:36:17.424Z,15096
2022-09-17T07:37:20.410Z,18368
2022-09-17T07:38:23.827Z,23104
2022-09-17T07:39:26.344Z,49024
2022-09-17T07:40:29.313Z,68896
2022-09-17T07:41:33.213Z,17964
2022-09-17T07:42:36.426Z,63968
2022-09-17T07:43:39.475Z,15012
2022-09-17T07:44:43.923Z,68608
2022-09-17T07:45:46.754Z,75808
2022-09-17T07:46:49.546Z,77600
2022-09-17T07:47:53.558Z,48288
2022-09-17T07:48:56.740Z,17552
2022-09-17T07:49:59.806Z,20320
2022-09-17T07:51:02.798Z,12908
2022-09-17T07:52:06.163Z,11596
2022-09-17T07:53:09.004Z,13308
2022-09-17T07:54:11.445Z,13592
2022-09-17T07:55:14.320Z,10836
2022-09-17T07:56:16.841Z,9216
2022-09-17T07:57:19.360Z,10976
2022-09-17T07:58:22.217Z,16832
2022-09-17T07:59:25.359Z,17224
2022-09-17T08:00:29.511Z,14060
2022-09-17T08:01:32.519Z,13432
2022-09-17T08:02:36.142Z,13232
2022-09-17T08:03:40.201Z,16112
2022-09-17T08:04:43.752Z,12872
2022-09-17T08:05:46.909Z,11612
2022-09-17T08:06:50.387Z,12172
2022-09-17T08:07:53.180Z,16052
2022-09-17T08:08:56.064Z,23936
2022-09-17T08:09:59.421Z,20448
2022-09-17T08:11:02.497Z,22720
2022-09-17T08:12:05.457Z,42336
2022-09-17T08:13:08.161Z,36384
2022-09-17T08:14:11.224Z,49536
2022-09-17T08:15:13.939Z,20544
2022-09-17T08:16:18.382Z,13904
2022-09-17T08:17:22.619Z,17636
2022-09-17T08:18:25.990Z,33024
2022-09-17T08:19:29.148Z,16424
2022-09-17T08:20:32.020Z,75200
2022-09-17T08:21:34.936Z,14968
2022-09-17T08:22:38.277Z,15620
2022-09-17T08:23:41.347Z,25152
2022-09-17T08:24:44.564Z,93536
2022-09-17T08:25:47.903Z,20608
2022-09-17T08:26:50.731Z,18336
2022-09-17T08:27:53.443Z,17084
2022-09-17T08:28:57.250Z,18592
2022-09-17T08:30:00.889Z,18104
2022-09-17T08:31:04.329Z,20640
2022-09-17T08:32:09.404Z,24288
2022-09-17T08:33:12.943Z,23008
2022-09-17T08:34:15.546Z,17684
2022-09-17T08:35:18.898Z,18944
2022-09-17T08:36:22.097Z,24736
2022-09-17T08:37:24.659Z,111104
2022-09-17T08:38:27.640Z,49376
2022-09-17T08:39:30.851Z,53472
2022-09-17T08:40:34.000Z,45600
2022-09-17T08:41:37.032Z,50560
2022-09-17T08:42:39.748Z,24224
2022-09-17T08:43:42.533Z,24192
2022-09-17T08:44:46.049Z,29024
2022-09-17T08:45:52.942Z,38912
2022-09-17T08:46:56.060Z,59264
2022-09-17T08:48:00.982Z,61440
2022-09-17T08:49:03.799Z,28768
2022-09-17T08:50:06.534Z,22240
2022-09-17T08:51:09.594Z,18464
2022-09-17T08:52:12.387Z,17172
2022-09-17T08:53:15.393Z,23360
2022-09-17T08:54:18.544Z,39968
2022-09-17T08:55:21.281Z,81472
2022-09-17T08:56:23.994Z,32864
2022-09-17T08:57:28.449Z,30048
2022-09-17T08:58:31.342Z,41408
2022-09-17T08:59:34.486Z,30656
2022-09-17T09:00:37.660Z,29696
2022-09-17T09:01:40.620Z,27200
2022-09-17T09:02:44.159Z,30752
2022-09-17T09:03:49.133Z,25088
2022-09-17T09:04:52.141Z,24064
2022-09-17T09:05:54.945Z,29760
2022-09-17T09:06:58.384Z,27616
2022-09-17T09:08:00.813Z,36672
2022-09-17T09:09:04.333Z,45664
2022-09-17T09:10:07.694Z,45408
2022-09-17T09:11:11.201Z,37952
2022-09-17T09:12:14.614Z,44288
2022-09-17T09:13:18.038Z,43968
2022-09-17T09:14:21.385Z,45504
2022-09-17T09:15:24.842Z,47808
2022-09-17T09:16:28.421Z,63200
2022-09-17T09:17:32.284Z,55520
2022-09-17T09:18:35.458Z,55136
2022-09-17T09:19:40.183Z,59648
2022-09-17T09:20:43.295Z,48544
2022-09-17T09:21:46.729Z,47968
2022-09-17T09:22:49.715Z,49632
2022-09-17T09:23:52.662Z,82688
2022-09-17T09:24:55.178Z,34080
2022-09-17T09:25:58.984Z,69440
2022-09-17T09:27:02.340Z,131552
2022-09-17T09:28:05.691Z,110080
2022-09-17T09:29:08.817Z,135808
2022-09-17T09:30:11.623Z,32736
2022-09-17T09:31:15.076Z,74816
2022-09-17T09:32:18.633Z,46176
2022-09-17T09:33:21.812Z,32448
2022-09-17T09:34:24.874Z,113728
2022-09-17T09:35:29.256Z,113920
2022-09-17T09:36:32.013Z,34496
2022-09-17T09:37:34.794Z,120512
2022-09-17T09:38:37.835Z,120320
2022-09-17T09:39:45.254Z,122048
2022-09-17T09:40:49.616Z,126592
2022-09-17T09:41:52.895Z,53824
2022-09-17T09:42:55.882Z,120384
2022-09-17T09:44:05.848Z,120320
2022-09-17T09:45:08.461Z,33248
2022-09-17T09:46:11.328Z,127936
2022-09-17T09:47:14.539Z,128288
2022-09-17T09:48:17.523Z,128512
2022-09-17T09:49:21.393Z,128992
2022-09-17T09:50:23.641Z,129056
2022-09-17T09:52:08.430Z,54176
2022-09-17T09:53:12.158Z,124128
2022-09-17T09:54:15.529Z,117248
2022-09-17T09:55:18.285Z,124928
2022-09-17T09:56:28.919Z,123712
2022-09-17T09:57:32.107Z,39040
2022-09-17T09:58:35.373Z,126208
2022-09-17T09:59:38.577Z,136128
2022-09-17T10:00:41.553Z,38784
2022-09-17T10:01:44.269Z,36480
2022-09-17T10:02:48.226Z,28992
2022-09-17T10:03:52.430Z,137408
2022-09-17T10:04:55.557Z,121120
2022-09-17T10:05:58.362Z,77952
2022-09-17T10:07:02.077Z,137856
2022-09-17T10:08:05.735Z,74912
2022-09-17T10:09:08.920Z,49440
2022-09-17T10:10:11.459Z,139808
2022-09-17T10:11:14.282Z,20960
2022-09-17T10:12:17.354Z,133696
2022-09-17T10:13:19.809Z,127968
2022-09-17T10:14:22.700Z,142528
2022-09-17T10:15:26.088Z,145632
2022-09-17T10:16:28.981Z,138432
2022-09-17T10:17:31.830Z,81248
2022-09-17T10:18:35.186Z,143392
2022-09-17T10:19:38.345Z,146368
2022-09-17T10:20:41.550Z,32960
2022-09-17T10:21:44.725Z,21408
2022-09-17T10:22:48.593Z,18068
2022-09-17T10:23:52.173Z,33280
2022-09-17T10:24:55.428Z,135040
2022-09-17T10:25:58.595Z,34272
2022-09-17T10:27:02.049Z,85856
2022-09-17T10:28:05.162Z,130400
2022-09-17T10:29:08.149Z,132256
2022-09-17T10:30:11.213Z,131104
2022-09-17T10:31:14.799Z,130944
2022-09-17T10:32:18.351Z,111520
2022-09-17T10:33:20.831Z,128000
2022-09-17T10:34:23.445Z,130720
2022-09-17T10:35:26.431Z,43968
2022-09-17T10:36:29.541Z,30880
2022-09-17T10:37:40.447Z,21856
2022-09-17T10:38:44.688Z,132192
2022-09-17T10:39:49.021Z,131808
2022-09-17T10:40:52.525Z,133696
2022-09-17T10:41:55.342Z,134112
2022-09-17T10:42:58.406Z,135072
2022-09-17T10:44:00.986Z,77216
2022-09-17T10:45:04.039Z,137984
2022-09-17T10:46:07.803Z,136864
2022-09-17T10:47:10.878Z,36544
2022-09-17T10:48:13.940Z,123360
2022-09-17T10:49:17.359Z,30592
2022-09-17T10:50:19.952Z,24544
2022-09-17T10:51:23.760Z,19296
2022-09-17T10:52:27.323Z,14712
2022-09-17T10:53:30.661Z,11532
2022-09-17T10:54:35.147Z,9992
2022-09-17T10:55:39.092Z,9552
2022-09-17T10:56:42.090Z,9568
2022-09-17T10:57:45.190Z,10644
2022-09-17T10:58:47.981Z,12376
2022-09-17T10:59:51.328Z,14380
2022-09-17T11:00:53.914Z,16020
2022-09-17T11:01:57.103Z,17920
2022-09-17T11:03:00.916Z,18072
2022-09-17T11:04:04.184Z,18720
2022-09-17T11:05:06.637Z,24064
2022-09-17T11:06:14.259Z,137952
2022-09-17T11:07:17.756Z,146368
2022-09-17T11:08:20.759Z,45312
2022-09-17T11:09:24.110Z,145024
2022-09-17T11:10:27.450Z,54496
2022-09-17T11:11:31.105Z,38528
2022-09-17T11:12:34.366Z,21536
2022-09-17T11:13:37.418Z,19360
2022-09-17T11:14:40.371Z,18944
2022-09-17T11:15:43.848Z,18432
2022-09-17T11:16:55.114Z,16896
2022-09-17T11:17:58.192Z,13628
2022-09-17T11:19:01.175Z,10224
2022-09-17T11:20:04.517Z,8100
2022-09-17T11:21:07.231Z,7060
2022-09-17T11:22:10.649Z,6932
2022-09-17T11:23:12.929Z,7136
2022-09-17T11:24:16.418Z,8140
2022-09-17T11:25:19.557Z,9952
2022-09-17T11:26:23.787Z,11508
2022-09-17T11:27:27.720Z,12040
2022-09-17T11:28:30.436Z,11324
2022-09-17T11:29:33.568Z,9596
2022-09-17T11:30:37.562Z,10172
2022-09-17T11:31:40.318Z,14808
2022-09-17T11:32:43.336Z,22528
2022-09-17T11:33:46.148Z,32736
2022-09-17T11:34:48.855Z,27392
2022-09-17T11:35:52.129Z,28608
2022-09-17T11:36:55.027Z,33184
2022-09-17T11:37:59.878Z,40448
2022-09-17T11:39:03.208Z,80672
2022-09-17T11:40:06.184Z,29952
2022-09-17T11:41:09.646Z,31904
2022-09-17T11:42:13.554Z,62016
2022-09-17T11:43:17.207Z,97856
2022-09-17T11:44:20.487Z,64928
2022-09-17T11:45:22.917Z,54592
2022-09-17T11:46:25.850Z,44416
2022-09-17T11:47:28.572Z,57600
2022-09-17T11:48:31.711Z,98592
2022-09-17T11:49:34.869Z,135200
2022-09-17T11:50:38.216Z,112992
2022-09-17T11:51:41.590Z,130016
2022-09-17T11:52:44.668Z,126752
2022-09-17T11:53:47.898Z,124320
2022-09-17T11:54:50.893Z,125248
2022-09-17T11:55:53.355Z,120256
2022-09-17T11:56:56.031Z,129888
2022-09-17T11:58:00.226Z,126400
2022-09-17T11:59:04.172Z,123264
2022-09-17T12:00:07.293Z,28096
2022-09-17T12:01:10.754Z,17504
2022-09-17T12:02:14.222Z,30592
2022-09-17T12:03:17.150Z,61792
2022-09-17T12:04:20.696Z,17396
2022-09-17T12:05:24.113Z,81408
2022-09-17T12:06:26.650Z,124000
2022-09-17T12:07:29.798Z,23744
2022-09-17T12:08:33.340Z,13788
2022-09-17T12:09:36.403Z,15224
2022-09-17T12:10:39.124Z,126144
2022-09-17T12:11:42.699Z,124896
2022-09-17T12:12:49.892Z,121216
2022-09-17T12:13:54.271Z,114976
2022-09-17T12:14:58.457Z,113472
2022-09-17T12:16:01.822Z,112576
2022-09-17T12:17:05.253Z,111328
2022-09-17T12:18:30.917Z,109344
2022-09-17T12:19:36.245Z,109664
2022-09-17T12:20:40.234Z,111072
2022-09-17T12:21:43.503Z,111264
2022-09-17T12:22:46.855Z,110624
2022-09-17T12:23:49.949Z,43968
2022-09-17T12:24:52.480Z,109728
2022-09-17T12:25:55.262Z,107744
2022-09-17T12:26:58.217Z,111744
2022-09-17T12:28:01.271Z,108864
2022-09-17T12:29:04.524Z,106976
2022-09-17T12:30:08.484Z,108544
2022-09-17T12:31:12.030Z,111200
2022-09-17T12:32:16.123Z,33408
2022-09-17T12:33:18.943Z,102112
2022-09-17T12:34:21.923Z,79264
2022-09-17T12:35:32.850Z,19328
2022-09-17T12:37:08.460Z,66304
2022-09-17T12:38:11.263Z,45408
2022-09-17T12:39:15.000Z,68480
2022-09-17T12:40:17.734Z,54304
2022-09-17T12:41:20.633Z,80928
2022-09-17T12:42:23.330Z,84480
2022-09-17T12:43:26.679Z,21088
2022-09-17T12:44:30.550Z,23840
2022-09-17T12:45:34.594Z,24800
2022-09-17T12:46:38.089Z,35424
2022-09-17T12:47:41.225Z,38432
2022-09-17T12:48:44.884Z,19152
2022-09-17T12:49:47.478Z,18532
2022-09-17T12:50:50.590Z,20352
2022-09-17T12:51:53.639Z,28896
2022-09-17T12:52:56.605Z,25344
2022-09-17T12:53:59.781Z,24320
2022-09-17T12:55:03.160Z,23808
2022-09-17T12:56:06.305Z,20416
2022-09-17T12:57:08.828Z,16960
2022-09-17T12:58:12.006Z,15360
2022-09-17T12:59:14.604Z,26144
2022-09-17T13:00:18.234Z,31776
2022-09-17T13:01:21.918Z,17812
2022-09-17T13:02:24.788Z,69344
2022-09-17T13:03:27.954Z,58848
2022-09-17T13:04:50.145Z,86080
2022-09-17T13:06:05.124Z,43648
2022-09-17T13:07:07.913Z,40960
2022-09-17T13:08:11.343Z,37152
2022-09-17T13:09:14.604Z,47968
2022-09-17T13:10:17.394Z,35552
2022-09-17T13:11:20.251Z,12568
2022-09-17T13:12:22.761Z,12736
2022-09-17T13:13:26.333Z,76544
2022-09-17T13:14:29.044Z,15996
2022-09-17T13:15:33.319Z,15732
2022-09-17T13:16:37.361Z,16912
2022-09-17T13:17:40.855Z,14268
2022-09-17T13:18:53.828Z,12876
2022-09-17T13:20:21.598Z,21696
2022-09-17T13:21:23.554Z,52896
2022-09-17T13:22:26.995Z,14760
2022-09-17T13:23:30.658Z,13120
2022-09-17T13:24:32.690Z,13476
2022-09-17T13:25:35.757Z,11944
2022-09-17T13:26:38.642Z,11996
2022-09-17T13:27:41.711Z,13220
2022-09-17T13:28:47.168Z,15204
2022-09-17T13:29:50.786Z,16652
2022-09-17T13:30:54.395Z,18528
2022-09-17T13:31:58.622Z,16484
2022-09-17T13:33:01.515Z,17020
2022-09-17T13:34:03.860Z,17144
2022-09-17T13:35:07.038Z,15320
2022-09-17T13:36:10.411Z,13748
2022-09-17T13:37:13.279Z,13268
2022-09-17T13:38:19.011Z,13552
2022-09-17T13:39:26.677Z,12856
2022-09-17T13:40:29.235Z,14024
2022-09-17T13:41:33.112Z,15024
2022-09-17T13:42:35.980Z,15004
2022-09-17T13:43:38.127Z,13896
2022-09-17T13:44:41.163Z,12480
2022-09-17T13:45:43.949Z,11980
2022-09-17T13:46:47.912Z,12440
2022-09-17T13:47:52.656Z,14824
2022-09-17T13:48:55.866Z,19712
2022-09-17T13:49:59.313Z,14008
2022-09-17T13:51:01.813Z,12788
2022-09-17T13:52:07.014Z,11760
2022-09-17T13:53:14.301Z,10512
2022-09-17T13:54:17.224Z,9156
2022-09-17T13:55:20.394Z,8468
2022-09-17T13:56:23.569Z,8304
2022-09-17T13:57:26.446Z,8528
2022-09-17T13:58:29.068Z,8796
2022-09-17T13:59:32.587Z,9280
2022-09-17T14:00:36.092Z,9692
2022-09-17T14:01:39.196Z,11100
2022-09-17T14:02:43.200Z,15496
2022-09-17T14:03:47.654Z,16368
2022-09-17T14:04:50.724Z,15632
2022-09-17T14:05:54.732Z,15532
2022-09-17T14:06:57.976Z,13700
2022-09-17T14:08:01.078Z,19200
2022-09-17T14:09:03.664Z,18056
2022-09-17T14:10:06.739Z,43104
2022-09-17T14:11:09.248Z,26528
2022-09-17T14:12:11.914Z,14996
2022-09-17T14:13:14.231Z,34720
2022-09-17T14:14:17.657Z,40768
2022-09-17T14:15:20.889Z,23552
2022-09-17T14:16:24.845Z,14784
2022-09-17T14:17:28.704Z,14328